Tocumen International

Airport
ICAO code: 
MPTO
IATA Code: 
PTY
Summary
ICAO Region: 
CARSAM
Territory: 
Location: 
Tocumen, Panama Province
Serving: 
Panama City
Elevation: 
135 ft
Coordinates: 
Aerial View: 
9° 4' 7.621" N, 79° 22' 57.16" W
Metar
Observation
MPTO 192300Z 33012KT 9999 SCT018 28/20 Q1009 NOSIG
Station
Tocumen
Date/Time
2022-01-19 23:00:00
Wind direction
330°
Wind speed
12 kts
Lowest cloud amount
scattered clouds
Temperature
28°C
Dew point
20°C
Humidity
61%
QNH
1009 hPa
Weather condition
n/a

Tocumen International Airport is an international airport located 24 km from Panama City, Panama.

Climatology

Tropical savannah climate (Köppen climate classification Aw)

Runways

Designator Length Width Surface Rops
03L/21R 2682 61 ASP Yes/Yes
03R/21L 3050 45 CON Yes/Yes
Airport map: 
Aerial View: 

SKYbrary Partners:

Safety knowledge contributed by: